Time;durP1;ratioP1;P1;durP2;ratioP2;P2;SDS_P1;SDS_P2;PMS_P1;PMS_P2;Temp;Humidity;BMP_temperature;BMP_pressure;BME280_temperature;BME280_humidity;BME280_pressure;Samples;Min_cycle;Max_cycle;Signal;HPM_P1;HPM_P2
2022/09/22 00:02:20;;;;;;;;;;;7.60;99.90;;;;;;4993800;28;19937;-70
2022/09/22 00:04:47;;;;;;;;;;;7.60;99.90;;;;;;4994346;28;19929;-69
2022/09/22 00:07:14;;;;;;;;;;;7.50;99.90;;;;;;5001435;28;19930;-69
2022/09/22 00:09:41;;;;;;;;;;;7.50;99.90;;;;;;4991225;28;19926;-69
2022/09/22 00:12:08;;;;;;;;;;;7.40;99.90;;;;;;4985175;28;19932;-69
2022/09/22 00:14:36;;;;;;;;;;;7.40;99.90;;;;;;4992023;28;19930;-68
2022/09/22 00:17:03;;;;;;;;;;;7.40;99.90;;;;;;4987686;28;19926;-69
2022/09/22 00:19:31;;;;;;;;;;;7.30;99.90;;;;;;4993419;28;19926;-69
2022/09/22 00:21:58;;;;;;;;;;;7.30;99.90;;;;;;4990298;28;19926;-69
2022/09/22 00:24:25;;;;;;;;;;;7.30;99.90;;;;;;4999406;28;20300;-69
2022/09/22 00:26:56;;;;;;;;;;;7.30;99.90;;;;;;4980300;28;19930;-69
2022/09/22 00:29:23;;;;;;;;;;;7.30;99.90;;;;;;5002201;28;19925;-70
2022/09/22 00:31:51;;;;;;;;;;;7.30;99.90;;;;;;4997082;28;19933;-69
2022/09/22 00:34:20;;;;;;;;;;;7.30;99.90;;;;;;4992334;28;19925;-69
2022/09/22 00:36:47;;;;;;;;;;;7.30;99.90;;;;;;4979062;28;19926;-69
2022/09/22 00:39:14;;;;;;;;;;;7.30;99.90;;;;;;4990221;28;19926;-69
2022/09/22 00:41:43;;;;;;;;;;;7.20;99.90;;;;;;4993568;28;19930;-68
2022/09/22 00:44:31;;;;;;;;;;;7.20;99.90;;;;;;4990727;28;19976;-68
2022/09/22 00:47:02;;;;;;;;;;;7.20;99.90;;;;;;4996747;28;19926;-69
2022/09/22 00:49:34;;;;;;;;;;;7.10;99.90;;;;;;4991374;28;20448;-69
2022/09/22 00:52:01;;;;;;;;;;;7.10;99.90;;;;;;4999757;28;20344;-70
2022/09/22 00:54:28;;;;;;;;;;;7.10;99.90;;;;;;4989267;28;19989;-69
2022/09/22 00:56:57;;;;;;;;;;;7.10;99.90;;;;;;4994351;28;20008;-69
2022/09/22 00:59:25;;;;;;;;;;;7.10;99.90;;;;;;4987560;28;19926;-69
2022/09/22 01:01:52;;;;;;;;;;;7.10;99.90;;;;;;4992492;28;19934;-69
2022/09/22 01:04:21;;;;;;;;;;;7.10;99.90;;;;;;4987759;28;19926;-68
2022/09/22 01:06:48;;;;;;;;;;;7.10;99.90;;;;;;4991737;28;19926;-68
2022/09/22 01:09:15;;;;;;;;;;;7.10;99.90;;;;;;4990156;28;19971;-69
2022/09/22 01:11:42;;;;;;;;;;;7.00;99.90;;;;;;4995219;28;19929;-69
2022/09/22 01:14:12;;;;;;;;;;;7.00;99.90;;;;;;4991723;28;19953;-69
2022/09/22 01:16:45;;;;;;;;;;;7.00;99.90;;;;;;4989284;28;19980;-69
2022/09/22 01:19:30;;;;;;;;;;;7.00;99.90;;;;;;5012289;28;19930;-68
2022/09/22 01:22:03;;;;;;;;;;;7.00;99.90;;;;;;4979895;28;19930;-69
2022/09/22 01:24:48;;;;;;;;;;;7.00;99.90;;;;;;4980907;28;20388;-69
2022/09/22 01:27:29;;;;;;;;;;;7.00;99.90;;;;;;4993010;28;20020;-69
2022/09/22 01:30:20;;;;;;;;;;;6.90;99.90;;;;;;4995021;28;20017;-70
2022/09/22 01:32:56;;;;;;;;;;;6.90;99.90;;;;;;4982115;28;19925;-69
2022/09/22 01:35:27;;;;;;;;;;;6.80;99.90;;;;;;4990522;28;19985;-69
2022/09/22 01:37:54;;;;;;;;;;;;;;;;;;5011735;28;19925;-69
2022/09/22 01:40:26;;;;;;;;;;;6.80;99.90;;;;;;4996895;28;19930;-69
2022/09/22 01:42:56;;;;;;;;;;;6.80;99.90;;;;;;4990311;28;19926;-70
2022/09/22 01:45:24;;;;;;;;;;;6.80;99.90;;;;;;4990762;28;19933;-68
2022/09/22 01:47:53;;;;;;;;;;;6.80;99.90;;;;;;4993271;28;19926;-69
2022/09/22 01:50:24;;;;;;;;;;;6.80;99.90;;;;;;4983325;28;19954;-69
2022/09/22 01:52:51;;;;;;;;;;;6.80;99.90;;;;;;4990329;28;20012;-69
2022/09/22 01:55:21;;;;;;;;;;;6.70;99.90;;;;;;4990548;28;19926;-69
2022/09/22 01:57:50;;;;;;;;;;;6.80;99.90;;;;;;4995542;28;19930;-68
2022/09/22 02:00:18;;;;;;;;;;;6.80;99.90;;;;;;4994262;28;19926;-69
2022/09/22 02:02:49;;;;;;;;;;;6.70;99.90;;;;;;4988768;28;19929;-69
2022/09/22 02:05:18;;;;;;;;;;;6.70;99.90;;;;;;4984304;28;19925;-68
2022/09/22 02:07:48;;;;;;;;;;;6.70;99.90;;;;;;4995697;28;19933;-70
2022/09/22 02:10:16;;;;;;;;;;;6.70;99.90;;;;;;4987380;28;20456;-69
2022/09/22 02:12:43;;;;;;;;;;;6.70;99.90;;;;;;5002060;28;19929;-69
2022/09/22 02:15:58;;;;;;;;;;;6.70;99.90;;;;;;4996629;28;20396;-70
2022/09/22 02:17:59;;;;;;;;;;;6.70;99.90;;;;;;4988372;28;19930;-70
2022/09/22 02:20:25;;;;;;;;;;;6.70;99.90;;;;;;4986553;28;19926;-69
2022/09/22 02:22:54;;;;;;;;;;;6.70;99.90;;;;;;4991598;28;19933;-69
2022/09/22 02:25:22;;;;;;;;;;;6.60;99.90;;;;;;4980707;28;19949;-69
2022/09/22 02:27:49;;;;;;;;;;;6.60;99.90;;;;;;4987906;28;19933;-69
2022/09/22 02:30:17;;;;;;;;;;;6.60;99.90;;;;;;4996160;28;19926;-70
2022/09/22 02:32:47;;;;;;;;;;;6.50;99.90;;;;;;5003021;28;19945;-69
2022/09/22 02:35:14;;;;;;;;;;;6.50;99.90;;;;;;4990825;28;20356;-70
2022/09/22 02:37:47;;;;;;;;;;;6.40;99.90;;;;;;4986539;28;19926;-69
2022/09/22 02:40:20;;;;;;;;;;;6.50;99.90;;;;;;4989711;28;19933;-70
2022/09/22 02:42:48;;;;;;;;;;;6.50;99.90;;;;;;4988479;28;19955;-70
2022/09/22 02:45:17;;;;;;;;;;;6.40;99.90;;;;;;4988307;28;19926;-70
2022/09/22 02:47:46;;;;;;;;;;;6.40;99.90;;;;;;4993036;28;20053;-70
2022/09/22 02:50:13;;;;;;;;;;;6.40;99.90;;;;;;4983788;28;19980;-69
2022/09/22 02:52:40;;;;;;;;;;;6.40;99.90;;;;;;4989661;28;19926;-68
2022/09/22 02:55:08;;;;;;;;;;;6.40;99.90;;;;;;4990258;28;19976;-70
2022/09/22 02:57:36;;;;;;;;;;;6.40;99.90;;;;;;4989076;28;19981;-70
2022/09/22 03:00:04;;;;;;;;;;;6.40;99.90;;;;;;4990114;28;20436;-70
2022/09/22 03:02:31;;;;;;;;;;;6.40;99.90;;;;;;4987959;28;20355;-70
2022/09/22 03:04:57;;;;;;;;;;;6.30;99.90;;;;;;4998503;28;20024;-70
2022/09/22 03:07:24;;;;;;;;;;;6.30;99.90;;;;;;4992289;28;19926;-69
2022/09/22 03:09:51;;;;;;;;;;;6.30;99.90;;;;;;4981939;28;20436;-68
2022/09/22 03:12:18;;;;;;;;;;;6.30;99.90;;;;;;4990689;28;20300;-70
2022/09/22 03:14:46;;;;;;;;;;;6.30;99.90;;;;;;4986901;28;19926;-69
2022/09/22 03:17:12;;;;;;;;;;;6.30;99.90;;;;;;4983113;28;19930;-69
2022/09/22 03:19:39;;;;;;;;;;;6.30;99.90;;;;;;4988053;28;19941;-69
2022/09/22 03:22:06;;;;;;;;;;;6.30;99.90;;;;;;4996003;28;19930;-69
2022/09/22 03:24:33;;;;;;;;;;;6.20;99.90;;;;;;4990692;28;19929;-70
2022/09/22 03:27:00;;;;;;;;;;;6.20;99.90;;;;;;4981434;28;19930;-70
2022/09/22 03:29:26;;;;;;;;;;;6.20;99.90;;;;;;4992341;28;20373;-69
2022/09/22 03:31:55;;;;;;;;;;;6.20;99.90;;;;;;4989312;28;19930;-69
2022/09/22 03:34:21;;;;;;;;;;;6.30;99.90;;;;;;4993522;28;19926;-69
2022/09/22 03:36:48;;;;;;;;;;;6.40;99.90;;;;;;4991113;28;20294;-70
2022/09/22 03:39:15;;;;;;;;;;;6.30;99.90;;;;;;4986789;28;19930;-70
2022/09/22 03:41:42;;;;;;;;;;;6.30;99.90;;;;;;4988879;28;19926;-70
2022/09/22 03:44:09;;;;;;;;;;;6.20;99.90;;;;;;4985013;28;19930;-70
2022/09/22 03:46:36;;;;;;;;;;;6.20;99.90;;;;;;4991550;28;20020;-69
2022/09/22 03:49:04;;;;;;;;;;;6.10;99.90;;;;;;4986369;28;20348;-69
2022/09/22 03:51:33;;;;;;;;;;;6.10;99.90;;;;;;4991027;28;19926;-70
2022/09/22 03:53:59;;;;;;;;;;;6.00;99.90;;;;;;4989138;28;19926;-70
2022/09/22 03:56:26;;;;;;;;;;;6.00;99.90;;;;;;4991031;28;20347;-70
2022/09/22 03:58:53;;;;;;;;;;;5.90;99.90;;;;;;4988594;28;19926;-70
2022/09/22 04:01:20;;;;;;;;;;;5.90;99.90;;;;;;4990715;28;20463;-69
2022/09/22 04:03:47;;;;;;;;;;;5.90;99.90;;;;;;4990329;28;19926;-69
2022/09/22 04:06:15;;;;;;;;;;;5.90;99.90;;;;;;4990444;28;19926;-69
2022/09/22 04:08:41;;;;;;;;;;;5.90;99.90;;;;;;4993281;28;19926;-69
2022/09/22 04:11:08;;;;;;;;;;;5.80;99.90;;;;;;4990826;28;19949;-70
2022/09/22 04:13:35;;;;;;;;;;;5.80;99.90;;;;;;4991054;28;19925;-70
2022/09/22 04:16:02;;;;;;;;;;;5.80;99.90;;;;;;4984501;28;19926;-69
2022/09/22 04:18:29;;;;;;;;;;;5.80;99.90;;;;;;4994331;28;19925;-68
2022/09/22 04:20:57;;;;;;;;;;;5.80;99.90;;;;;;4987749;28;19932;-69
2022/09/22 04:23:25;;;;;;;;;;;5.70;99.90;;;;;;4994845;28;20424;-70
2022/09/22 04:25:52;;;;;;;;;;;5.80;99.90;;;;;;5002161;28;19925;-69
2022/09/22 04:28:19;;;;;;;;;;;5.80;99.90;;;;;;4991119;28;19934;-67
2022/09/22 04:30:47;;;;;;;;;;;5.70;99.90;;;;;;4994943;28;19926;-69
2022/09/22 04:33:13;;;;;;;;;;;5.70;99.90;;;;;;4989820;28;19933;-75
2022/09/22 04:35:40;;;;;;;;;;;5.80;99.90;;;;;;4992622;28;19930;-68
2022/09/22 04:38:08;;;;;;;;;;;5.70;99.90;;;;;;5001182;28;19989;-70
2022/09/22 04:40:36;;;;;;;;;;;5.60;99.90;;;;;;4995898;28;19929;-69
2022/09/22 04:43:03;;;;;;;;;;;5.60;99.90;;;;;;5008337;23;19945;-66
2022/09/22 04:45:30;;;;;;;;;;;5.60;99.90;;;;;;5029265;28;20028;-67
2022/09/22 04:47:56;;;;;;;;;;;5.50;99.90;;;;;;5010599;28;20018;-68
2022/09/22 04:50:23;;;;;;;;;;;5.50;99.90;;;;;;5012620;28;20020;-69
2022/09/22 04:52:50;;;;;;;;;;;5.60;99.90;;;;;;5008975;28;19926;-69
2022/09/22 04:55:17;;;;;;;;;;;5.60;99.90;;;;;;4999554;28;19968;-70
2022/09/22 04:57:48;;;;;;;;;;;5.60;99.90;;;;;;5003869;28;20476;-70
2022/09/22 05:00:15;;;;;;;;;;;5.50;99.90;;;;;;5005716;28;20393;-72
2022/09/22 05:02:42;;;;;;;;;;;5.50;99.90;;;;;;4988762;28;19933;-69
2022/09/22 05:05:09;;;;;;;;;;;5.50;99.90;;;;;;4990986;28;19926;-69
2022/09/22 05:07:36;;;;;;;;;;;5.50;99.90;;;;;;4986107;28;20021;-67
2022/09/22 05:10:04;;;;;;;;;;;5.50;99.90;;;;;;5000419;28;19968;-68
2022/09/22 05:12:31;;;;;;;;;;;5.50;99.90;;;;;;4997284;28;19964;-68
2022/09/22 05:14:59;;;;;;;;;;;5.60;99.90;;;;;;4997581;28;19937;-69
2022/09/22 05:17:27;;;;;;;;;;;5.50;99.90;;;;;;5001345;28;19929;-67
2022/09/22 05:19:54;;;;;;;;;;;5.50;99.90;;;;;;4994513;28;19925;-67
2022/09/22 05:22:21;;;;;;;;;;;5.50;99.90;;;;;;5003158;28;19926;-67
2022/09/22 05:24:48;;;;;;;;;;;5.50;99.90;;;;;;4999116;28;19937;-66
2022/09/22 05:27:15;;;;;;;;;;;5.50;99.90;;;;;;5006557;28;19925;-66
2022/09/22 05:29:42;;;;;;;;;;;5.50;99.90;;;;;;4997142;28;19930;-67
2022/09/22 05:32:10;;;;;;;;;;;5.50;99.90;;;;;;4991572;28;19926;-67
2022/09/22 05:34:36;;;;;;;;;;;5.50;99.90;;;;;;4995323;28;19958;-67
2022/09/22 05:37:03;;;;;;;;;;;5.40;99.90;;;;;;4992237;28;19926;-67
2022/09/22 05:39:30;;;;;;;;;;;5.50;99.90;;;;;;4993252;28;20352;-67
2022/09/22 05:41:57;;;;;;;;;;;5.60;99.90;;;;;;4997756;28;19925;-67
2022/09/22 05:44:24;;;;;;;;;;;5.60;99.90;;;;;;4998906;28;20360;-67
2022/09/22 05:46:50;;;;;;;;;;;5.60;99.90;;;;;;4997580;28;19975;-68
2022/09/22 05:49:19;;;;;;;;;;;5.70;99.90;;;;;;4994600;28;19926;-67
2022/09/22 05:51:45;;;;;;;;;;;5.70;99.90;;;;;;4998485;28;19976;-66
2022/09/22 05:54:12;;;;;;;;;;;5.70;99.90;;;;;;5000325;28;19941;-67
2022/09/22 05:56:39;;;;;;;;;;;5.80;99.90;;;;;;5002165;28;20024;-68
2022/09/22 05:59:06;;;;;;;;;;;5.80;99.90;;;;;;4996856;28;19926;-68
2022/09/22 06:01:33;;;;;;;;;;;5.90;99.90;;;;;;4994482;28;19930;-69
2022/09/22 06:03:59;;;;;;;;;;;6.00;99.90;;;;;;5000388;28;19929;-68
2022/09/22 06:06:28;;;;;;;;;;;6.00;99.90;;;;;;5002432;28;19929;-67
2022/09/22 06:08:54;;;;;;;;;;;6.10;99.90;;;;;;4999478;28;19925;-68
2022/09/22 06:11:21;;;;;;;;;;;6.10;99.90;;;;;;4995304;28;20281;-68
2022/09/22 06:13:49;;;;;;;;;;;6.20;99.90;;;;;;5001246;28;20458;-67
2022/09/22 06:16:16;;;;;;;;;;;6.20;99.90;;;;;;4995383;28;19936;-67
2022/09/22 06:18:44;;;;;;;;;;;6.30;99.90;;;;;;4998342;28;19980;-68
2022/09/22 06:21:11;;;;;;;;;;;6.40;99.90;;;;;;4993727;28;20450;-68
2022/09/22 06:23:40;;;;;;;;;;;6.50;99.90;;;;;;5000630;28;19937;-69
2022/09/22 06:26:07;;;;;;;;;;;6.60;99.90;;;;;;5004958;28;19926;-67
2022/09/22 06:28:34;;;;;;;;;;;6.60;99.90;;;;;;4992440;28;19976;-68
2022/09/22 06:31:01;;;;;;;;;;;6.70;99.90;;;;;;5003674;28;19961;-68
2022/09/22 06:33:28;;;;;;;;;;;6.80;99.90;;;;;;4996165;28;19926;-69
2022/09/22 06:35:56;;;;;;;;;;;6.90;99.90;;;;;;5003379;28;19976;-69
2022/09/22 06:38:23;;;;;;;;;;;7.00;99.90;;;;;;4994761;28;20322;-67
2022/09/22 06:40:52;;;;;;;;;;;7.10;99.90;;;;;;5000752;28;20005;-68
2022/09/22 06:43:21;;;;;;;;;;;7.20;99.90;;;;;;4998844;28;19933;-68
2022/09/22 06:45:49;;;;;;;;;;;7.30;99.90;;;;;;4997919;28;20384;-68
2022/09/22 06:48:16;;;;;;;;;;;7.40;99.90;;;;;;5000473;28;20388;-68
2022/09/22 06:50:47;;;;;;;;;;;7.50;99.90;;;;;;5001891;28;19934;-68
2022/09/22 06:53:14;;;;;;;;;;;7.60;99.90;;;;;;4996062;28;19941;-68
2022/09/22 06:55:42;;;;;;;;;;;7.60;99.90;;;;;;4997097;28;19926;-69
2022/09/22 06:58:10;;;;;;;;;;;7.70;99.90;;;;;;4995914;28;20359;-68
2022/09/22 07:00:40;;;;;;;;;;;7.80;99.90;;;;;;4997890;28;19930;-69
2022/09/22 07:03:08;;;;;;;;;;;7.90;99.90;;;;;;4992502;28;19926;-67
2022/09/22 07:05:36;;;;;;;;;;;8.00;99.90;;;;;;5001546;28;19925;-69
2022/09/22 07:08:03;;;;;;;;;;;8.10;99.90;;;;;;4995538;28;20312;-68
2022/09/22 07:10:30;;;;;;;;;;;8.20;99.90;;;;;;4995084;28;20021;-67
2022/09/22 07:12:59;;;;;;;;;;;8.40;99.90;;;;;;4997731;28;20312;-69
2022/09/22 07:15:29;;;;;;;;;;;8.50;99.90;;;;;;5003127;28;19933;-67
2022/09/22 07:17:56;;;;;;;;;;;8.60;99.90;;;;;;4997018;28;19933;-69
2022/09/22 07:20:23;;;;;;;;;;;8.80;99.90;;;;;;5002083;28;19925;-68
2022/09/22 07:22:50;;;;;;;;;;;8.90;99.90;;;;;;4994783;28;19934;-67
2022/09/22 07:25:17;;;;;;;;;;;9.00;99.90;;;;;;5002456;28;19926;-68
2022/09/22 07:27:44;;;;;;;;;;;9.10;99.90;;;;;;4997698;28;20340;-68
2022/09/22 07:30:12;;;;;;;;;;;9.30;99.90;;;;;;4995963;28;19929;-68
2022/09/22 07:32:41;;;;;;;;;;;9.40;99.90;;;;;;4999425;28;19936;-68
2022/09/22 07:35:08;;;;;;;;;;;9.50;99.90;;;;;;4996747;28;19949;-67
2022/09/22 07:37:39;;;;;;;;;;;9.60;99.90;;;;;;4995700;28;19926;-68
2022/09/22 07:40:06;;;;;;;;;;;9.70;99.90;;;;;;4995376;28;20036;-67
2022/09/22 07:42:33;;;;;;;;;;;9.80;99.90;;;;;;4999062;28;19957;-69
2022/09/22 07:45:15;;;;;;;;;;;10.00;99.90;;;;;;4999242;28;20371;-67
2022/09/22 07:50:28;;;;;;;;;;;10.20;99.90;;;;;;4999433;28;19926;-68
2022/09/22 07:52:55;;;;;;;;;;;10.30;99.90;;;;;;5002578;28;19933;-67
2022/09/22 07:55:23;;;;;;;;;;;10.50;99.90;;;;;;5004312;28;19937;-67
2022/09/22 07:57:54;;;;;;;;;;;10.60;99.90;;;;;;5001580;28;20403;-68
2022/09/22 08:00:22;;;;;;;;;;;10.70;99.90;;;;;;4997747;28;19961;-68
2022/09/22 08:02:54;;;;;;;;;;;10.80;99.90;;;;;;5001831;28;20336;-69
2022/09/22 08:05:21;;;;;;;;;;;10.90;99.90;;;;;;4996376;28;19926;-67
2022/09/22 08:07:48;;;;;;;;;;;11.10;99.90;;;;;;5000094;28;19925;-67
2022/09/22 08:10:16;;;;;;;;;;;11.20;99.90;;;;;;4995740;28;19933;-68
2022/09/22 08:12:43;;;;;;;;;;;11.30;99.90;;;;;;4999398;28;19974;-68
2022/09/22 08:15:10;;;;;;;;;;;11.30;99.90;;;;;;4992064;28;19938;-68
2022/09/22 08:17:38;;;;;;;;;;;11.50;99.90;;;;;;4998837;28;19926;-69
2022/09/22 08:20:08;;;;;;;;;;;11.60;99.90;;;;;;5005910;28;19934;-68
2022/09/22 08:22:35;;;;;;;;;;;11.70;99.90;;;;;;5000354;28;19933;-68
2022/09/22 08:25:01;;;;;;;;;;;11.80;99.90;;;;;;5006894;28;19930;-68
2022/09/22 08:27:29;;;;;;;;;;;11.90;99.90;;;;;;4997607;28;19973;-67
2022/09/22 08:29:56;;;;;;;;;;;12.10;99.90;;;;;;4998517;28;20307;-68
2022/09/22 08:32:25;;;;;;;;;;;12.10;99.90;;;;;;5002900;28;19926;-69
2022/09/22 08:34:56;;;;;;;;;;;12.30;99.90;;;;;;5016391;28;19925;-68
2022/09/22 08:37:27;;;;;;;;;;;12.40;99.90;;;;;;5000227;28;19925;-68
2022/09/22 08:39:54;;;;;;;;;;;12.50;99.90;;;;;;4997817;28;20400;-68
2022/09/22 08:42:22;;;;;;;;;;;12.60;99.90;;;;;;5004109;28;19930;-68
2022/09/22 08:44:55;;;;;;;;;;;12.70;99.90;;;;;;4997759;28;19926;-68
2022/09/22 08:52:55;;;;;;;;;;;13.10;99.90;;;;;;4971350;28;19929;-68
2022/09/22 08:55:23;;;;;;;;;;;13.20;99.90;;;;;;5000216;28;19935;-68
2022/09/22 08:57:58;;;;;;;;;;;13.30;99.90;;;;;;5003192;28;19926;-66
2022/09/22 09:00:25;;;;;;;;;;;13.40;99.90;;;;;;5000188;28;20020;-68
2022/09/22 09:02:58;;;;;;;;;;;13.50;99.90;;;;;;4998648;28;20022;-68
2022/09/22 09:05:59;;;;;;;;;;;13.50;99.90;;;;;;5002183;28;20032;-68
2022/09/22 09:08:52;;;;;;;;;;;13.60;99.90;;;;;;4913183;29;20375;-68
2022/09/22 09:11:26;;;;;;;;;;;13.80;99.90;;;;;;4880734;29;20379;-68
2022/09/22 09:14:01;;;;;;;;;;;13.90;99.90;;;;;;4966823;28;19925;-67
2022/09/22 09:16:42;;;;;;;;;;;14.10;99.90;;;;;;4995754;28;19925;-68
2022/09/22 09:19:15;;;;;;;;;;;14.20;99.90;;;;;;4995081;28;19955;-68
2022/09/22 09:21:44;;;;;;;;;;;14.30;99.90;;;;;;4998437;28;20032;-69
2022/09/22 09:24:15;;;;;;;;;;;14.40;99.90;;;;;;4990479;28;19976;-69
2022/09/22 09:26:43;;;;;;;;;;;14.50;99.90;;;;;;4998380;28;19937;-68
2022/09/22 09:29:15;;;;;;;;;;;14.70;99.90;;;;;;4999892;28;19926;-69
2022/09/22 09:31:43;;;;;;;;;;;14.80;99.90;;;;;;5003677;28;19930;-69
2022/09/22 09:34:13;;;;;;;;;;;14.80;99.90;;;;;;5002856;28;19929;-67
2022/09/22 09:36:42;;;;;;;;;;;14.90;99.90;;;;;;5002073;28;19934;-68
2022/09/22 09:39:11;;;;;;;;;;;15.00;99.90;;;;;;4996939;28;20454;-68
2022/09/22 09:41:38;;;;;;;;;;;15.10;99.90;;;;;;4997234;28;19926;-68
2022/09/22 09:44:07;;;;;;;;;;;15.20;99.90;;;;;;4996130;28;19941;-68
2022/09/22 09:46:44;;;;;;;;;;;15.30;99.90;;;;;;5002509;28;19984;-68
2022/09/22 09:49:13;;;;;;;;;;;15.50;99.90;;;;;;5006032;28;19930;-68
2022/09/22 09:51:42;;;;;;;;;;;15.60;99.90;;;;;;4997252;28;19925;-68
2022/09/22 09:54:11;;;;;;;;;;;15.70;99.90;;;;;;5003615;28;20020;-68
2022/09/22 09:56:58;;;;;;;;;;;15.80;99.90;;;;;;4999173;28;19926;-68
2022/09/22 10:02:15;;;;;;;;;;;16.10;99.90;;;;;;4957729;28;19933;-67
2022/09/22 10:04:48;;;;;;;;;;;16.10;99.90;;;;;;4995562;28;19934;-68
2022/09/22 10:07:15;;;;;;;;;;;16.20;99.90;;;;;;4992342;28;19980;-68
2022/09/22 10:09:43;;;;;;;;;;;16.40;99.90;;;;;;4998483;28;19926;-70
2022/09/22 10:12:21;;;;;;;;;;;16.50;99.90;;;;;;4998641;28;19980;-68
2022/09/22 10:14:51;;;;;;;;;;;16.50;99.90;;;;;;5003511;28;19933;-68
2022/09/22 10:17:20;;;;;;;;;;;16.70;99.90;;;;;;5000302;28;20381;-68
2022/09/22 10:19:47;;;;;;;;;;;16.80;99.90;;;;;;5001526;28;19949;-70
2022/09/22 10:22:23;;;;;;;;;;;16.90;99.90;;;;;;5000208;28;20377;-68
2022/09/22 10:24:54;;;;;;;;;;;17.10;99.90;;;;;;5006320;28;20396;-68
2022/09/22 10:27:22;;;;;;;;;;;17.10;99.90;;;;;;4995497;28;19930;-68
2022/09/22 10:30:11;;;;;;;;;;;17.20;99.90;;;;;;4995557;28;19925;-69
2022/09/22 10:32:38;;;;;;;;;;;17.50;99.90;;;;;;4996751;28;19929;-68
2022/09/22 10:35:25;;;;;;;;;;;17.70;99.90;;;;;;4997348;28;19937;-68
2022/09/22 10:37:52;;;;;;;;;;;17.70;99.90;;;;;;5004423;28;19934;-68
2022/09/22 10:40:21;;;;;;;;;;;17.80;99.90;;;;;;4996787;28;19926;-68
2022/09/22 10:42:50;;;;;;;;;;;18.10;99.90;;;;;;4997139;28;19974;-68
2022/09/22 10:45:19;;;;;;;;;;;18.20;99.90;;;;;;4994934;28;19933;-68
2022/09/22 10:47:51;;;;;;;;;;;18.20;99.90;;;;;;4999083;28;19929;-69
2022/09/22 10:50:41;;;;;;;;;;;18.40;99.90;;;;;;4997613;28;19926;-68
2022/09/22 10:53:21;;;;;;;;;;;18.60;99.90;;;;;;5004153;28;19925;-68
2022/09/22 10:55:52;;;;;;;;;;;18.70;99.90;;;;;;4995187;28;19934;-68
2022/09/22 10:58:26;;;;;;;;;;;18.90;99.90;;;;;;5005088;28;19935;-69
2022/09/22 11:01:00;;;;;;;;;;;19.20;99.90;;;;;;4999056;28;20401;-69
2022/09/22 11:03:46;;;;;;;;;;;19.40;99.90;;;;;;4992066;28;19930;-68
2022/09/22 11:12:16;;;;;;;;;;;19.90;99.90;;;;;;4995911;28;19926;-69
2022/09/22 11:14:47;;;;;;;;;;;20.20;99.90;;;;;;5004102;28;19930;-69
2022/09/22 11:17:21;;;;;;;;;;;20.50;99.90;;;;;;4995589;28;20470;-68
2022/09/22 11:19:57;;;;;;;;;;;24.10;99.90;;;;;;5008309;28;19949;-68
2022/09/22 11:22:37;;;;;;;;;;;29.30;99.90;;;;;;4998306;28;19926;-69
2022/09/22 11:25:13;;;;;;;;;;;32.80;99.90;;;;;;5006678;28;20036;-69
2022/09/22 11:27:53;;;;;;;;;;;34.40;99.90;;;;;;5004189;28;19929;-68
2022/09/22 11:30:21;;;;;;;;;;;35.70;99.90;;;;;;4995268;28;20361;-68
2022/09/22 11:32:55;;;;;;;;;;;36.20;99.90;;;;;;5002466;28;19930;-69
2022/09/22 11:35:38;;;;;;;;;;;37.10;99.90;;;;;;5001052;28;19934;-71
2022/09/22 11:38:14;;;;;;;;;;;38.20;99.90;;;;;;5002457;28;20371;-69
2022/09/22 11:40:49;;;;;;;;;;;36.70;99.90;;;;;;5003763;28;19957;-69
2022/09/22 11:43:25;;;;;;;;;;;36.70;99.90;;;;;;5011421;28;19929;-69
2022/09/22 11:45:57;;;;;;;;;;;36.70;98.90;;;;;;4989293;28;19933;-69
2022/09/22 11:48:32;;;;;;;;;;;36.60;99.50;;;;;;5007050;28;19929;-69
2022/09/22 11:51:12;;;;;;;;;;;38.50;99.50;;;;;;5001345;28;19979;-69
2022/09/22 11:53:56;;;;;;;;;;;38.00;98.10;;;;;;5006666;28;19926;-69
2022/09/22 11:56:32;;;;;;;;;;;38.70;98.00;;;;;;4991921;28;19929;-71
2022/09/22 11:59:01;;;;;;;;;;;38.00;96.00;;;;;;5018498;28;19929;-69
2022/09/22 12:01:31;;;;;;;;;;;38.50;96.30;;;;;;4998079;28;20451;-69
2022/09/22 12:04:03;;;;;;;;;;;39.60;97.10;;;;;;4997314;28;19926;-69
2022/09/22 12:06:31;;;;;;;;;;;39.50;95.50;;;;;;4998409;28;19972;-69
2022/09/22 12:09:00;;;;;;;;;;;40.20;95.80;;;;;;4998209;28;19972;-69
2022/09/22 12:11:28;;;;;;;;;;;40.90;95.30;;;;;;4990479;28;19926;-69
2022/09/22 12:13:55;;;;;;;;;;;41.40;94.80;;;;;;4995559;28;20015;-69
2022/09/22 12:16:25;;;;;;;;;;;39.40;94.20;;;;;;5000030;28;19933;-71
2022/09/22 12:18:54;;;;;;;;;;;38.60;94.10;;;;;;5001020;28;19929;-69
2022/09/22 12:21:28;;;;;;;;;;;38.50;94.80;;;;;;5001272;28;19953;-69
2022/09/22 12:23:59;;;;;;;;;;;37.30;93.60;;;;;;5005938;28;20376;-69
2022/09/22 12:26:26;;;;;;;;;;;37.10;93.20;;;;;;5006717;28;19979;-68
2022/09/22 12:28:53;;;;;;;;;;;37.20;93.10;;;;;;4997343;28;19975;-70
2022/09/22 12:31:20;;;;;;;;;;;38.00;92.80;;;;;;5003130;28;19976;-69
2022/09/22 12:33:48;;;;;;;;;;;38.00;92.30;;;;;;5000194;28;20068;-69
2022/09/22 12:36:16;;;;;;;;;;;38.70;92.90;;;;;;5005998;28;20368;-69
2022/09/22 12:38:45;;;;;;;;;;;38.80;92.20;;;;;;4999530;28;19926;-69
2022/09/22 12:41:16;;;;;;;;;;;39.10;91.10;;;;;;4998632;28;19948;-69
2022/09/22 12:43:43;;;;;;;;;;;39.30;91.00;;;;;;5000073;28;19926;-70
2022/09/22 12:46:17;;;;;;;;;;;38.90;91.10;;;;;;4997295;28;19965;-69
2022/09/22 12:48:44;;;;;;;;;;;38.10;91.00;;;;;;5005050;28;19925;-70
2022/09/22 12:51:29;;;;;;;;;;;36.90;90.20;;;;;;4992844;28;19925;-70
2022/09/22 12:54:11;;;;;;;;;;;36.90;91.50;;;;;;5003039;28;20016;-70
2022/09/22 12:56:46;;;;;;;;;;;36.50;91.70;;;;;;4999601;28;19926;-70
2022/09/22 12:59:43;;;;;;;;;;;35.20;90.40;;;;;;4991732;28;20368;-70
2022/09/22 13:02:17;;;;;;;;;;;35.40;90.60;;;;;;4937586;28;19926;-70
2022/09/22 13:05:16;;;;;;;;;;;36.50;90.40;;;;;;4980837;28;19926;-70
2022/09/22 13:07:43;;;;;;;;;;;36.70;90.70;;;;;;5003552;28;20384;-70
2022/09/22 13:10:28;;;;;;;;;;;35.80;91.00;;;;;;5005397;28;19926;-69
2022/09/22 13:13:10;;;;;;;;;;;36.40;91.50;;;;;;4997709;28;19926;-69
2022/09/22 13:15:52;;;;;;;;;;;36.50;91.00;;;;;;5001766;28;19929;-69
2022/09/22 13:18:29;;;;;;;;;;;36.40;90.50;;;;;;4999786;28;20344;-70
2022/09/22 13:20:56;;;;;;;;;;;35.90;90.40;;;;;;4999116;28;20285;-69
2022/09/22 13:23:23;;;;;;;;;;;35.60;90.20;;;;;;4991529;28;19926;-70
2022/09/22 13:25:50;;;;;;;;;;;35.50;90.50;;;;;;4998646;28;19930;-71
2022/09/22 13:28:20;;;;;;;;;;;35.50;91.50;;;;;;4998197;28;19926;-70
2022/09/22 13:30:47;;;;;;;;;;;35.80;91.00;;;;;;4999279;28;20032;-70
2022/09/22 13:33:18;;;;;;;;;;;36.20;90.60;;;;;;4995715;28;19933;-71
2022/09/22 13:35:45;;;;;;;;;;;35.50;89.70;;;;;;4998766;28;20319;-70
2022/09/22 13:38:13;;;;;;;;;;;33.80;90.70;;;;;;5004007;28;19961;-70
2022/09/22 13:40:44;;;;;;;;;;;34.30;90.30;;;;;;5001472;28;19980;-70
2022/09/22 13:43:11;;;;;;;;;;;34.00;90.00;;;;;;4994535;28;19926;-70
2022/09/22 13:45:40;;;;;;;;;;;33.60;89.70;;;;;;4997563;28;19973;-70
2022/09/22 13:48:08;;;;;;;;;;;33.30;91.20;;;;;;4994585;28;20470;-71
2022/09/22 13:50:40;;;;;;;;;;;33.20;90.80;;;;;;4999418;28;19926;-71
2022/09/22 13:53:07;;;;;;;;;;;33.40;91.00;;;;;;5001647;28;19933;-71
2022/09/22 13:55:36;;;;;;;;;;;34.50;90.60;;;;;;5001476;28;19980;-72
2022/09/22 13:58:03;;;;;;;;;;;35.20;90.00;;;;;;5005947;28;19933;-72
2022/09/22 14:00:32;;;;;;;;;;;34.40;90.20;;;;;;4998439;28;19925;-73
2022/09/22 14:03:02;;;;;;;;;;;35.00;90.30;;;;;;4997735;28;19925;-68
2022/09/22 14:05:30;;;;;;;;;;;34.70;90.40;;;;;;4995150;28;19925;-68
2022/09/22 14:07:57;;;;;;;;;;;34.90;90.30;;;;;;4999982;28;19930;-69
2022/09/22 14:10:26;;;;;;;;;;;34.30;89.40;;;;;;4999633;28;19973;-69
2022/09/22 14:12:53;;;;;;;;;;;34.30;90.40;;;;;;5009486;28;19933;-68
2022/09/22 14:15:33;;;;;;;;;;;34.70;90.10;;;;;;4995480;28;19929;-69
2022/09/22 14:18:00;;;;;;;;;;;34.60;89.90;;;;;;4998536;28;19929;-68
2022/09/22 14:20:28;;;;;;;;;;;33.90;90.20;;;;;;5001046;28;20384;-74
2022/09/22 14:22:55;;;;;;;;;;;33.40;90.30;;;;;;5003208;28;20017;-68
2022/09/22 14:25:22;;;;;;;;;;;32.80;90.50;;;;;;4998592;28;19929;-68
2022/09/22 14:27:50;;;;;;;;;;;32.70;91.20;;;;;;4996759;28;19930;-70
2022/09/22 14:30:18;;;;;;;;;;;32.10;91.00;;;;;;4992365;28;19941;-69
2022/09/22 14:32:49;;;;;;;;;;;33.00;91.10;;;;;;4989275;28;19925;-66
2022/09/22 14:35:21;;;;;;;;;;;33.60;91.30;;;;;;5001076;28;19952;-68
2022/09/22 14:37:51;;;;;;;;;;;34.20;91.30;;;;;;5002327;28;19925;-68
2022/09/22 14:40:19;;;;;;;;;;;33.60;91.50;;;;;;4993337;28;19977;-68
2022/09/22 14:42:55;;;;;;;;;;;32.50;92.50;;;;;;4991193;28;19925;-68
2022/09/22 14:45:22;;;;;;;;;;;31.90;91.70;;;;;;5007624;28;19926;-68
2022/09/22 14:48:04;;;;;;;;;;;31.60;91.90;;;;;;4991099;28;19930;-68
2022/09/22 14:50:37;;;;;;;;;;;31.60;92.20;;;;;;4992333;28;19926;-69
2022/09/22 14:53:07;;;;;;;;;;;31.40;92.00;;;;;;5004024;28;19932;-72
2022/09/22 14:55:35;;;;;;;;;;;31.20;91.80;;;;;;4996329;28;20133;-68
2022/09/22 14:58:03;;;;;;;;;;;31.20;92.00;;;;;;4995324;28;19932;-70